sensor_id;sensor_type;location;lat;lon;timestamp;temperature;humidity
41838;DHT22;27511;52.042;5.178;2024-03-08T00:01:06;8.50;99.90
41838;DHT22;27511;52.042;5.178;2024-03-08T00:03:32;8.60;99.90
41838;DHT22;27511;52.042;5.178;2024-03-08T00:05:58;8.60;99.90
41838;DHT22;27511;52.042;5.178;2024-03-08T00:08:23;8.50;99.90
41838;DHT22;27511;52.042;5.178;2024-03-08T00:10:50;8.50;99.90
41838;DHT22;27511;52.042;5.178;2024-03-08T00:13:15;8.50;99.90
41838;DHT22;27511;52.042;5.178;2024-03-08T00:15:41;8.40;99.90
41838;DHT22;27511;52.042;5.178;2024-03-08T00:18:07;8.40;99.90
41838;DHT22;27511;52.042;5.178;2024-03-08T00:20:32;8.40;99.90
41838;DHT22;27511;52.042;5.178;2024-03-08T00:22:58;8.40;99.90
41838;DHT22;27511;52.042;5.178;2024-03-08T00:25:24;8.40;99.90
41838;DHT22;27511;52.042;5.178;2024-03-08T00:27:50;8.40;99.90
41838;DHT22;27511;52.042;5.178;2024-03-08T00:30:15;8.30;99.90
41838;DHT22;27511;52.042;5.178;2024-03-08T00:32:41;8.30;99.90
41838;DHT22;27511;52.042;5.178;2024-03-08T00:35:07;8.20;99.90
41838;DHT22;27511;52.042;5.178;2024-03-08T00:37:33;8.20;99.90
41838;DHT22;27511;52.042;5.178;2024-03-08T00:39:59;8.20;99.90
41838;DHT22;27511;52.042;5.178;2024-03-08T00:42:25;8.10;99.90
41838;DHT22;27511;52.042;5.178;2024-03-08T00:44:50;8.10;99.90
41838;DHT22;27511;52.042;5.178;2024-03-08T00:47:17;8.10;99.90
41838;DHT22;27511;52.042;5.178;2024-03-08T00:49:42;8.30;99.90
41838;DHT22;27511;52.042;5.178;2024-03-08T00:52:08;8.10;99.90
41838;DHT22;27511;52.042;5.178;2024-03-08T00:54:35;8.20;99.90
41838;DHT22;27511;52.042;5.178;2024-03-08T00:57:03;8.10;99.90
41838;DHT22;27511;52.042;5.178;2024-03-08T00:59:30;8.10;99.90
41838;DHT22;27511;52.042;5.178;2024-03-08T01:01:58;8.10;99.90
41838;DHT22;27511;52.042;5.178;2024-03-08T01:04:24;8.00;99.90
41838;DHT22;27511;52.042;5.178;2024-03-08T01:06:51;8.00;99.90
41838;DHT22;27511;52.042;5.178;2024-03-08T01:09:16;8.00;99.90
41838;DHT22;27511;52.042;5.178;2024-03-08T01:11:42;7.90;99.90
41838;DHT22;27511;52.042;5.178;2024-03-08T01:14:09;7.90;99.90
41838;DHT22;27511;52.042;5.178;2024-03-08T01:16:35;7.90;99.90
41838;DHT22;27511;52.042;5.178;2024-03-08T01:19:00;7.90;99.90
41838;DHT22;27511;52.042;5.178;2024-03-08T01:21:26;7.80;99.90
41838;DHT22;27511;52.042;5.178;2024-03-08T01:23:52;7.80;99.90
41838;DHT22;27511;52.042;5.178;2024-03-08T01:26:17;7.80;99.90
41838;DHT22;27511;52.042;5.178;2024-03-08T01:28:43;7.70;99.90
41838;DHT22;27511;52.042;5.178;2024-03-08T01:31:08;7.60;99.90
41838;DHT22;27511;52.042;5.178;2024-03-08T01:33:34;7.60;99.90
41838;DHT22;27511;52.042;5.178;2024-03-08T01:36:00;7.80;99.90
41838;DHT22;27511;52.042;5.178;2024-03-08T01:38:26;7.70;99.90
41838;DHT22;27511;52.042;5.178;2024-03-08T01:40:51;7.70;99.90
41838;DHT22;27511;52.042;5.178;2024-03-08T01:43:21;7.60;99.90
41838;DHT22;27511;52.042;5.178;2024-03-08T01:45:48;7.60;99.90
41838;DHT22;27511;52.042;5.178;2024-03-08T01:48:17;7.60;99.90
41838;DHT22;27511;52.042;5.178;2024-03-08T01:50:45;7.50;99.90
41838;DHT22;27511;52.042;5.178;2024-03-08T01:53:11;7.50;99.90
41838;DHT22;27511;52.042;5.178;2024-03-08T01:55:41;7.40;99.90
41838;DHT22;27511;52.042;5.178;2024-03-08T01:58:09;7.50;99.90
41838;DHT22;27511;52.042;5.178;2024-03-08T02:00:36;7.40;99.90
41838;DHT22;27511;52.042;5.178;2024-03-08T02:03:03;7.40;99.90
41838;DHT22;27511;52.042;5.178;2024-03-08T02:05:29;7.50;99.90
41838;DHT22;27511;52.042;5.178;2024-03-08T02:07:55;7.50;99.90
41838;DHT22;27511;52.042;5.178;2024-03-08T02:10:22;7.50;99.90
41838;DHT22;27511;52.042;5.178;2024-03-08T02:12:48;7.50;99.90
41838;DHT22;27511;52.042;5.178;2024-03-08T02:15:14;7.50;99.90
41838;DHT22;27511;52.042;5.178;2024-03-08T02:17:40;7.50;99.90
41838;DHT22;27511;52.042;5.178;2024-03-08T02:20:07;7.50;99.90
41838;DHT22;27511;52.042;5.178;2024-03-08T02:22:34;7.50;99.90
41838;DHT22;27511;52.042;5.178;2024-03-08T02:25:00;7.50;99.90
41838;DHT22;27511;52.042;5.178;2024-03-08T02:27:27;7.50;99.90
41838;DHT22;27511;52.042;5.178;2024-03-08T02:29:56;7.40;99.90
41838;DHT22;27511;52.042;5.178;2024-03-08T02:32:25;7.40;99.90
41838;DHT22;27511;52.042;5.178;2024-03-08T02:34:51;7.30;99.90
41838;DHT22;27511;52.042;5.178;2024-03-08T02:37:17;7.40;99.90
41838;DHT22;27511;52.042;5.178;2024-03-08T02:39:43;7.30;99.90
41838;DHT22;27511;52.042;5.178;2024-03-08T02:42:08;7.30;99.90
41838;DHT22;27511;52.042;5.178;2024-03-08T02:44:34;7.20;99.90
41838;DHT22;27511;52.042;5.178;2024-03-08T02:47:00;7.20;99.90
41838;DHT22;27511;52.042;5.178;2024-03-08T02:49:26;7.20;99.90
41838;DHT22;27511;52.042;5.178;2024-03-08T02:51:52;7.20;99.90
41838;DHT22;27511;52.042;5.178;2024-03-08T02:54:19;7.10;99.90
41838;DHT22;27511;52.042;5.178;2024-03-08T02:56:45;6.70;99.90
41838;DHT22;27511;52.042;5.178;2024-03-08T02:59:12;6.80;99.90
41838;DHT22;27511;52.042;5.178;2024-03-08T03:01:38;6.90;99.90
41838;DHT22;27511;52.042;5.178;2024-03-08T03:04:04;7.00;99.90
41838;DHT22;27511;52.042;5.178;2024-03-08T03:06:30;6.90;99.90
41838;DHT22;27511;52.042;5.178;2024-03-08T03:08:56;7.00;99.90
41838;DHT22;27511;52.042;5.178;2024-03-08T03:11:23;6.90;99.90
41838;DHT22;27511;52.042;5.178;2024-03-08T03:13:48;6.90;99.90
41838;DHT22;27511;52.042;5.178;2024-03-08T03:16:18;6.90;99.90
41838;DHT22;27511;52.042;5.178;2024-03-08T03:18:45;7.00;99.90
41838;DHT22;27511;52.042;5.178;2024-03-08T03:21:11;7.00;99.90
41838;DHT22;27511;52.042;5.178;2024-03-08T03:23:41;6.80;99.90
41838;DHT22;27511;52.042;5.178;2024-03-08T03:26:08;6.80;99.90
41838;DHT22;27511;52.042;5.178;2024-03-08T03:28:34;6.90;99.90
41838;DHT22;27511;52.042;5.178;2024-03-08T03:30:59;6.60;99.90
41838;DHT22;27511;52.042;5.178;2024-03-08T03:33:25;6.60;99.90
41838;DHT22;27511;52.042;5.178;2024-03-08T03:35:51;6.60;99.90
41838;DHT22;27511;52.042;5.178;2024-03-08T03:38:19;5.90;99.90
41838;DHT22;27511;52.042;5.178;2024-03-08T03:40:48;6.20;99.90
41838;DHT22;27511;52.042;5.178;2024-03-08T03:43:17;6.40;99.90
41838;DHT22;27511;52.042;5.178;2024-03-08T03:45:43;6.50;99.90
41838;DHT22;27511;52.042;5.178;2024-03-08T03:48:09;6.60;99.90
41838;DHT22;27511;52.042;5.178;2024-03-08T03:50:35;6.50;99.90
41838;DHT22;27511;52.042;5.178;2024-03-08T03:53:01;6.30;99.90
41838;DHT22;27511;52.042;5.178;2024-03-08T03:55:28;6.40;99.90
41838;DHT22;27511;52.042;5.178;2024-03-08T03:57:54;6.20;99.90
41838;DHT22;27511;52.042;5.178;2024-03-08T04:00:20;6.30;99.90
41838;DHT22;27511;52.042;5.178;2024-03-08T04:02:45;6.40;99.90
41838;DHT22;27511;52.042;5.178;2024-03-08T04:05:12;6.40;99.90
41838;DHT22;27511;52.042;5.178;2024-03-08T04:07:38;6.40;99.90
41838;DHT22;27511;52.042;5.178;2024-03-08T04:10:06;6.30;99.90
41838;DHT22;27511;52.042;5.178;2024-03-08T04:12:33;6.40;99.90
41838;DHT22;27511;52.042;5.178;2024-03-08T04:14:58;6.40;99.90
41838;DHT22;27511;52.042;5.178;2024-03-08T04:17:26;6.50;99.90
41838;DHT22;27511;52.042;5.178;2024-03-08T04:19:52;6.40;99.90
41838;DHT22;27511;52.042;5.178;2024-03-08T04:22:18;6.20;99.90
41838;DHT22;27511;52.042;5.178;2024-03-08T04:24:44;6.30;99.90
41838;DHT22;27511;52.042;5.178;2024-03-08T04:27:11;6.30;99.90
41838;DHT22;27511;52.042;5.178;2024-03-08T04:29:36;6.30;99.90
41838;DHT22;27511;52.042;5.178;2024-03-08T04:32:04;6.30;99.90
41838;DHT22;27511;52.042;5.178;2024-03-08T04:34:30;6.30;99.90
41838;DHT22;27511;52.042;5.178;2024-03-08T04:36:59;6.30;99.90
41838;DHT22;27511;52.042;5.178;2024-03-08T04:39:25;6.30;99.90
41838;DHT22;27511;52.042;5.178;2024-03-08T04:41:53;6.40;99.90
41838;DHT22;27511;52.042;5.178;2024-03-08T04:44:20;6.40;99.90
41838;DHT22;27511;52.042;5.178;2024-03-08T04:46:45;6.00;99.90
41838;DHT22;27511;52.042;5.178;2024-03-08T04:49:12;5.90;99.90
41838;DHT22;27511;52.042;5.178;2024-03-08T04:51:38;6.00;99.90
41838;DHT22;27511;52.042;5.178;2024-03-08T04:54:04;6.10;99.90
41838;DHT22;27511;52.042;5.178;2024-03-08T04:56:31;6.20;99.90
41838;DHT22;27511;52.042;5.178;2024-03-08T04:58:57;5.70;99.90
41838;DHT22;27511;52.042;5.178;2024-03-08T05:01:22;5.70;99.90
41838;DHT22;27511;52.042;5.178;2024-03-08T05:03:48;5.80;99.90
41838;DHT22;27511;52.042;5.178;2024-03-08T05:06:16;6.00;99.90
41838;DHT22;27511;52.042;5.178;2024-03-08T05:08:41;6.00;99.90
41838;DHT22;27511;52.042;5.178;2024-03-08T05:11:07;6.00;99.90
41838;DHT22;27511;52.042;5.178;2024-03-08T05:13:32;6.10;99.90
41838;DHT22;27511;52.042;5.178;2024-03-08T05:15:59;6.10;99.90
41838;DHT22;27511;52.042;5.178;2024-03-08T05:18:25;6.00;99.90
41838;DHT22;27511;52.042;5.178;2024-03-08T05:20:53;6.10;99.90
41838;DHT22;27511;52.042;5.178;2024-03-08T05:23:19;6.10;99.90
41838;DHT22;27511;52.042;5.178;2024-03-08T05:25:45;5.80;99.90
41838;DHT22;27511;52.042;5.178;2024-03-08T05:28:12;5.90;99.90
41838;DHT22;27511;52.042;5.178;2024-03-08T05:30:39;6.00;99.90
41838;DHT22;27511;52.042;5.178;2024-03-08T05:33:04;6.00;99.90
41838;DHT22;27511;52.042;5.178;2024-03-08T05:35:30;5.40;99.90
41838;DHT22;27511;52.042;5.178;2024-03-08T05:37:55;5.70;99.90
41838;DHT22;27511;52.042;5.178;2024-03-08T05:40:21;5.60;99.90
41838;DHT22;27511;52.042;5.178;2024-03-08T05:42:47;5.60;99.90
41838;DHT22;27511;52.042;5.178;2024-03-08T05:45:12;5.80;99.90
41838;DHT22;27511;52.042;5.178;2024-03-08T05:47:39;5.90;99.90
41838;DHT22;27511;52.042;5.178;2024-03-08T05:50:06;5.80;99.90
41838;DHT22;27511;52.042;5.178;2024-03-08T05:52:35;5.90;99.90
41838;DHT22;27511;52.042;5.178;2024-03-08T05:55:01;6.00;99.90
41838;DHT22;27511;52.042;5.178;2024-03-08T05:57:28;6.10;99.90
41838;DHT22;27511;52.042;5.178;2024-03-08T05:59:53;5.80;99.90
41838;DHT22;27511;52.042;5.178;2024-03-08T06:02:19;5.90;99.90
41838;DHT22;27511;52.042;5.178;2024-03-08T06:04:48;6.00;99.90
41838;DHT22;27511;52.042;5.178;2024-03-08T06:07:13;5.90;99.90
41838;DHT22;27511;52.042;5.178;2024-03-08T06:09:39;5.70;99.90
41838;DHT22;27511;52.042;5.178;2024-03-08T06:12:05;5.80;99.90
41838;DHT22;27511;52.042;5.178;2024-03-08T06:14:32;5.90;99.90
41838;DHT22;27511;52.042;5.178;2024-03-08T06:16:57;5.50;99.90
41838;DHT22;27511;52.042;5.178;2024-03-08T06:19:23;5.70;99.90
41838;DHT22;27511;52.042;5.178;2024-03-08T06:21:48;5.80;99.90
41838;DHT22;27511;52.042;5.178;2024-03-08T06:24:14;5.70;99.90
41838;DHT22;27511;52.042;5.178;2024-03-08T06:26:40;5.80;99.90
41838;DHT22;27511;52.042;5.178;2024-03-08T06:29:06;5.80;99.90
41838;DHT22;27511;52.042;5.178;2024-03-08T06:31:34;5.90;99.90
41838;DHT22;27511;52.042;5.178;2024-03-08T06:34:04;5.80;99.90
41838;DHT22;27511;52.042;5.178;2024-03-08T06:36:32;6.00;99.90
41838;DHT22;27511;52.042;5.178;2024-03-08T06:38:58;5.90;99.90
41838;DHT22;27511;52.042;5.178;2024-03-08T06:41:24;5.90;99.90
41838;DHT22;27511;52.042;5.178;2024-03-08T06:43:50;5.80;99.90
41838;DHT22;27511;52.042;5.178;2024-03-08T06:46:17;5.90;99.90
41838;DHT22;27511;52.042;5.178;2024-03-08T06:48:43;5.90;99.90
41838;DHT22;27511;52.042;5.178;2024-03-08T06:51:11;5.90;99.90
41838;DHT22;27511;52.042;5.178;2024-03-08T06:53:36;5.90;99.90
41838;DHT22;27511;52.042;5.178;2024-03-08T06:56:04;6.00;99.90
41838;DHT22;27511;52.042;5.178;2024-03-08T06:58:29;6.00;99.90
41838;DHT22;27511;52.042;5.178;2024-03-08T07:00:55;6.00;99.90
41838;DHT22;27511;52.042;5.178;2024-03-08T07:03:23;6.10;99.90
41838;DHT22;27511;52.042;5.178;2024-03-08T07:05:49;6.20;99.90
41838;DHT22;27511;52.042;5.178;2024-03-08T07:08:15;6.10;99.90
41838;DHT22;27511;52.042;5.178;2024-03-08T07:10:42;6.10;99.90
41838;DHT22;27511;52.042;5.178;2024-03-08T07:13:08;5.90;99.90
41838;DHT22;27511;52.042;5.178;2024-03-08T07:15:33;5.90;99.90
41838;DHT22;27511;52.042;5.178;2024-03-08T07:17:59;5.80;99.90
41838;DHT22;27511;52.042;5.178;2024-03-08T07:20:25;5.70;99.90
41838;DHT22;27511;52.042;5.178;2024-03-08T07:22:51;5.90;99.90
41838;DHT22;27511;52.042;5.178;2024-03-08T07:25:17;4.70;99.90
41838;DHT22;27511;52.042;5.178;2024-03-08T07:27:54;4.50;99.90
41838;DHT22;27511;52.042;5.178;2024-03-08T07:30:20;4.70;99.90
41838;DHT22;27511;52.042;5.178;2024-03-08T07:33:05;4.90;99.90
41838;DHT22;27511;52.042;5.178;2024-03-08T07:35:33;4.40;99.90
41838;DHT22;27511;52.042;5.178;2024-03-08T07:38:03;4.40;99.90
41838;DHT22;27511;52.042;5.178;2024-03-08T07:40:29;4.60;99.90
41838;DHT22;27511;52.042;5.178;2024-03-08T07:42:55;4.40;99.90
41838;DHT22;27511;52.042;5.178;2024-03-08T07:45:21;4.30;99.90
41838;DHT22;27511;52.042;5.178;2024-03-08T07:47:47;4.80;99.90
41838;DHT22;27511;52.042;5.178;2024-03-08T07:50:12;4.60;99.90
41838;DHT22;27511;52.042;5.178;2024-03-08T07:52:41;4.70;99.90
41838;DHT22;27511;52.042;5.178;2024-03-08T07:55:08;5.10;99.90
41838;DHT22;27511;52.042;5.178;2024-03-08T07:57:33;4.90;99.90
41838;DHT22;27511;52.042;5.178;2024-03-08T07:59:59;5.40;99.90
41838;DHT22;27511;52.042;5.178;2024-03-08T08:02:25;5.70;99.90
41838;DHT22;27511;52.042;5.178;2024-03-08T08:04:50;5.60;99.90
41838;DHT22;27511;52.042;5.178;2024-03-08T08:07:16;5.30;99.90
41838;DHT22;27511;52.042;5.178;2024-03-08T08:09:41;5.20;99.90
41838;DHT22;27511;52.042;5.178;2024-03-08T08:12:08;5.00;99.90
41838;DHT22;27511;52.042;5.178;2024-03-08T08:14:37;5.30;99.90
41838;DHT22;27511;52.042;5.178;2024-03-08T08:17:04;5.20;99.90
41838;DHT22;27511;52.042;5.178;2024-03-08T08:19:29;5.30;99.90
41838;DHT22;27511;52.042;5.178;2024-03-08T08:21:55;5.30;99.90
41838;DHT22;27511;52.042;5.178;2024-03-08T08:24:21;5.30;99.90
41838;DHT22;27511;52.042;5.178;2024-03-08T08:26:47;5.30;99.90
41838;DHT22;27511;52.042;5.178;2024-03-08T08:29:13;5.60;99.90
41838;DHT22;27511;52.042;5.178;2024-03-08T08:31:39;5.60;99.90
41838;DHT22;27511;52.042;5.178;2024-03-08T08:34:04;5.40;99.90
41838;DHT22;27511;52.042;5.178;2024-03-08T08:36:31;5.30;99.90
41838;DHT22;27511;52.042;5.178;2024-03-08T08:38:57;5.50;99.90
41838;DHT22;27511;52.042;5.178;2024-03-08T08:41:24;5.40;99.90
41838;DHT22;27511;52.042;5.178;2024-03-08T08:43:49;5.50;99.90
41838;DHT22;27511;52.042;5.178;2024-03-08T08:46:18;5.40;99.90
41838;DHT22;27511;52.042;5.178;2024-03-08T08:48:44;5.60;99.90
41838;DHT22;27511;52.042;5.178;2024-03-08T08:51:13;5.70;99.90
41838;DHT22;27511;52.042;5.178;2024-03-08T08:53:42;5.90;99.90
41838;DHT22;27511;52.042;5.178;2024-03-08T08:56:14;5.90;99.90
41838;DHT22;27511;52.042;5.178;2024-03-08T08:58:44;5.80;99.90
41838;DHT22;27511;52.042;5.178;2024-03-08T09:01:10;6.30;99.90
41838;DHT22;27511;52.042;5.178;2024-03-08T09:03:36;6.40;99.90
41838;DHT22;27511;52.042;5.178;2024-03-08T09:06:03;6.80;99.90
41838;DHT22;27511;52.042;5.178;2024-03-08T09:08:29;6.80;99.90
41838;DHT22;27511;52.042;5.178;2024-03-08T09:10:55;6.80;99.90
41838;DHT22;27511;52.042;5.178;2024-03-08T09:13:20;6.90;99.90
41838;DHT22;27511;52.042;5.178;2024-03-08T09:15:46;6.50;99.90
41838;DHT22;27511;52.042;5.178;2024-03-08T09:18:11;6.50;99.90
41838;DHT22;27511;52.042;5.178;2024-03-08T09:20:37;6.90;99.90
41838;DHT22;27511;52.042;5.178;2024-03-08T09:23:03;7.40;99.90
41838;DHT22;27511;52.042;5.178;2024-03-08T09:25:29;7.80;99.90
41838;DHT22;27511;52.042;5.178;2024-03-08T09:27:55;7.60;99.90
41838;DHT22;27511;52.042;5.178;2024-03-08T09:30:21;7.50;99.90
41838;DHT22;27511;52.042;5.178;2024-03-08T09:32:47;7.40;99.90
41838;DHT22;27511;52.042;5.178;2024-03-08T09:35:13;7.60;99.90
41838;DHT22;27511;52.042;5.178;2024-03-08T09:37:38;7.30;99.90
41838;DHT22;27511;52.042;5.178;2024-03-08T09:40:04;7.50;99.90
41838;DHT22;27511;52.042;5.178;2024-03-08T09:42:35;7.10;99.90
41838;DHT22;27511;52.042;5.178;2024-03-08T09:45:09;7.00;99.90
41838;DHT22;27511;52.042;5.178;2024-03-08T09:47:37;7.30;99.90
41838;DHT22;27511;52.042;5.178;2024-03-08T09:50:06;7.40;99.90
41838;DHT22;27511;52.042;5.178;2024-03-08T09:52:35;7.30;99.90
41838;DHT22;27511;52.042;5.178;2024-03-08T09:55:04;7.50;99.90
41838;DHT22;27511;52.042;5.178;2024-03-08T09:57:30;7.70;99.90
41838;DHT22;27511;52.042;5.178;2024-03-08T09:59:56;8.00;99.90
41838;DHT22;27511;52.042;5.178;2024-03-08T10:02:22;8.10;99.90
41838;DHT22;27511;52.042;5.178;2024-03-08T10:04:48;8.10;99.90
41838;DHT22;27511;52.042;5.178;2024-03-08T10:07:14;8.10;99.90
41838;DHT22;27511;52.042;5.178;2024-03-08T10:09:39;8.10;99.90
41838;DHT22;27511;52.042;5.178;2024-03-08T10:12:09;8.10;99.90
41838;DHT22;27511;52.042;5.178;2024-03-08T10:14:38;7.90;99.90
41838;DHT22;27511;52.042;5.178;2024-03-08T10:17:05;7.80;99.90
41838;DHT22;27511;52.042;5.178;2024-03-08T10:19:30;7.80;99.90
41838;DHT22;27511;52.042;5.178;2024-03-08T10:21:56;8.20;99.90
41838;DHT22;27511;52.042;5.178;2024-03-08T10:24:24;8.40;99.90
41838;DHT22;27511;52.042;5.178;2024-03-08T10:26:53;8.30;99.90
41838;DHT22;27511;52.042;5.178;2024-03-08T10:29:19;8.40;99.90
41838;DHT22;27511;52.042;5.178;2024-03-08T10:31:45;8.30;99.90
41838;DHT22;27511;52.042;5.178;2024-03-08T10:34:11;8.20;99.90
41838;DHT22;27511;52.042;5.178;2024-03-08T10:36:37;8.20;99.90
41838;DHT22;27511;52.042;5.178;2024-03-08T10:39:10;8.20;99.90
41838;DHT22;27511;52.042;5.178;2024-03-08T10:41:41;8.40;99.90
41838;DHT22;27511;52.042;5.178;2024-03-08T10:49:30;8.40;99.90
41838;DHT22;27511;52.042;5.178;2024-03-08T10:51:56;8.60;99.90
41838;DHT22;27511;52.042;5.178;2024-03-08T10:54:23;8.80;99.90
41838;DHT22;27511;52.042;5.178;2024-03-08T10:56:50;9.00;99.90
41838;DHT22;27511;52.042;5.178;2024-03-08T10:59:17;9.40;99.90
41838;DHT22;27511;52.042;5.178;2024-03-08T11:01:44;9.60;99.90
41838;DHT22;27511;52.042;5.178;2024-03-08T11:04:10;9.50;99.90
41838;DHT22;27511;52.042;5.178;2024-03-08T11:09:33;9.40;99.90
41838;DHT22;27511;52.042;5.178;2024-03-08T11:12:26;9.40;99.90
41838;DHT22;27511;52.042;5.178;2024-03-08T11:15:15;9.50;99.90
41838;DHT22;27511;52.042;5.178;2024-03-08T11:17:50;9.50;99.90
41838;DHT22;27511;52.042;5.178;2024-03-08T11:20:20;9.30;99.90
41838;DHT22;27511;52.042;5.178;2024-03-08T11:22:52;9.50;99.90
41838;DHT22;27511;52.042;5.178;2024-03-08T11:25:37;9.30;99.90
41838;DHT22;27511;52.042;5.178;2024-03-08T11:28:19;9.30;99.90
41838;DHT22;27511;52.042;5.178;2024-03-08T11:33:40;9.80;99.90
41838;DHT22;27511;52.042;5.178;2024-03-08T11:36:22;9.90;99.90
41838;DHT22;27511;52.042;5.178;2024-03-08T11:38:50;9.80;99.90
41838;DHT22;27511;52.042;5.178;2024-03-08T11:41:22;10.10;99.90
41838;DHT22;27511;52.042;5.178;2024-03-08T11:43:49;9.90;99.90
41838;DHT22;27511;52.042;5.178;2024-03-08T11:46:16;10.10;99.90
41838;DHT22;27511;52.042;5.178;2024-03-08T11:48:43;10.10;99.90
41838;DHT22;27511;52.042;5.178;2024-03-08T11:51:13;10.20;99.90
41838;DHT22;27511;52.042;5.178;2024-03-08T11:53:39;10.10;99.90
41838;DHT22;27511;52.042;5.178;2024-03-08T11:56:10;10.40;99.90
41838;DHT22;27511;52.042;5.178;2024-03-08T11:58:39;10.60;99.90
41838;DHT22;27511;52.042;5.178;2024-03-08T12:01:10;10.60;99.90
41838;DHT22;27511;52.042;5.178;2024-03-08T12:03:39;10.70;99.90
41838;DHT22;27511;52.042;5.178;2024-03-08T12:06:05;10.70;99.90
41838;DHT22;27511;52.042;5.178;2024-03-08T12:08:31;10.50;99.90
41838;DHT22;27511;52.042;5.178;2024-03-08T12:11:00;10.50;99.90
41838;DHT22;27511;52.042;5.178;2024-03-08T12:13:27;10.50;99.90
41838;DHT22;27511;52.042;5.178;2024-03-08T12:15:56;10.40;99.90
41838;DHT22;27511;52.042;5.178;2024-03-08T12:18:24;10.40;99.90
41838;DHT22;27511;52.042;5.178;2024-03-08T12:20:50;10.50;99.90
41838;DHT22;27511;52.042;5.178;2024-03-08T12:23:15;10.50;99.90
41838;DHT22;27511;52.042;5.178;2024-03-08T12:25:42;10.80;99.90
41838;DHT22;27511;52.042;5.178;2024-03-08T12:28:08;11.00;99.90
41838;DHT22;27511;52.042;5.178;2024-03-08T12:30:51;11.00;99.90
41838;DHT22;27511;52.042;5.178;2024-03-08T12:33:19;11.20;99.90
41838;DHT22;27511;52.042;5.178;2024-03-08T12:35:52;11.50;99.90
41838;DHT22;27511;52.042;5.178;2024-03-08T12:38:23;11.30;99.90
41838;DHT22;27511;52.042;5.178;2024-03-08T12:40:50;11.10;99.90
41838;DHT22;27511;52.042;5.178;2024-03-08T12:43:20;11.20;99.90
41838;DHT22;27511;52.042;5.178;2024-03-08T12:45:46;11.20;99.90
41838;DHT22;27511;52.042;5.178;2024-03-08T12:48:15;11.50;99.90
41838;DHT22;27511;52.042;5.178;2024-03-08T12:50:41;11.60;99.90
41838;DHT22;27511;52.042;5.178;2024-03-08T12:53:10;11.60;99.90
41838;DHT22;27511;52.042;5.178;2024-03-08T12:55:36;11.80;99.90
41838;DHT22;27511;52.042;5.178;2024-03-08T12:58:02;12.10;99.90
41838;DHT22;27511;52.042;5.178;2024-03-08T13:00:27;12.40;99.90
41838;DHT22;27511;52.042;5.178;2024-03-08T13:02:53;12.70;99.90
41838;DHT22;27511;52.042;5.178;2024-03-08T13:05:20;13.30;99.90
41838;DHT22;27511;52.042;5.178;2024-03-08T13:07:46;13.20;99.90
41838;DHT22;27511;52.042;5.178;2024-03-08T13:10:13;13.70;99.90
41838;DHT22;27511;52.042;5.178;2024-03-08T13:12:41;14.30;99.90
41838;DHT22;27511;52.042;5.178;2024-03-08T13:15:09;14.00;99.90
41838;DHT22;27511;52.042;5.178;2024-03-08T13:17:46;14.00;99.90
41838;DHT22;27511;52.042;5.178;2024-03-08T13:20:12;13.60;99.90
41838;DHT22;27511;52.042;5.178;2024-03-08T13:22:44;13.50;99.90
41838;DHT22;27511;52.042;5.178;2024-03-08T13:25:10;14.00;99.90
41838;DHT22;27511;52.042;5.178;2024-03-08T13:27:42;14.00;99.90
41838;DHT22;27511;52.042;5.178;2024-03-08T13:30:11;14.30;99.90
41838;DHT22;27511;52.042;5.178;2024-03-08T13:32:44;14.40;99.90
41838;DHT22;27511;52.042;5.178;2024-03-08T13:35:10;14.40;99.90
41838;DHT22;27511;52.042;5.178;2024-03-08T13:37:42;14.80;99.90
41838;DHT22;27511;52.042;5.178;2024-03-08T13:40:09;14.40;99.90
41838;DHT22;27511;52.042;5.178;2024-03-08T13:42:39;14.40;99.90
41838;DHT22;27511;52.042;5.178;2024-03-08T13:45:07;14.40;99.90
41838;DHT22;27511;52.042;5.178;2024-03-08T13:47:34;15.10;99.90
41838;DHT22;27511;52.042;5.178;2024-03-08T13:49:59;14.90;99.90
41838;DHT22;27511;52.042;5.178;2024-03-08T13:52:26;15.30;99.90
41838;DHT22;27511;52.042;5.178;2024-03-08T13:54:54;15.60;99.90
41838;DHT22;27511;52.042;5.178;2024-03-08T13:57:20;16.20;99.90
41838;DHT22;27511;52.042;5.178;2024-03-08T13:59:48;16.30;99.90
41838;DHT22;27511;52.042;5.178;2024-03-08T14:02:14;16.40;99.90
41838;DHT22;27511;52.042;5.178;2024-03-08T14:04:41;16.60;99.90
41838;DHT22;27511;52.042;5.178;2024-03-08T14:07:07;16.70;99.90
41838;DHT22;27511;52.042;5.178;2024-03-08T14:09:34;16.90;99.90
41838;DHT22;27511;52.042;5.178;2024-03-08T14:12:03;16.10;99.90
41838;DHT22;27511;52.042;5.178;2024-03-08T14:14:32;16.40;99.90
41838;DHT22;27511;52.042;5.178;2024-03-08T14:17:01;15.30;99.90
41838;DHT22;27511;52.042;5.178;2024-03-08T14:19:30;15.50;99.90
41838;DHT22;27511;52.042;5.178;2024-03-08T14:21:56;16.10;99.90
41838;DHT22;27511;52.042;5.178;2024-03-08T14:24:25;16.30;99.90
41838;DHT22;27511;52.042;5.178;2024-03-08T14:26:51;16.60;99.90
41838;DHT22;27511;52.042;5.178;2024-03-08T14:29:17;16.70;99.90
41838;DHT22;27511;52.042;5.178;2024-03-08T14:31:44;16.80;99.90
41838;DHT22;27511;52.042;5.178;2024-03-08T14:34:10;16.80;99.90
41838;DHT22;27511;52.042;5.178;2024-03-08T14:36:36;15.80;99.90
41838;DHT22;27511;52.042;5.178;2024-03-08T14:39:02;15.80;99.90
41838;DHT22;27511;52.042;5.178;2024-03-08T14:41:27;15.90;99.90
41838;DHT22;27511;52.042;5.178;2024-03-08T14:43:53;15.50;99.90
41838;DHT22;27511;52.042;5.178;2024-03-08T14:46:19;15.00;99.90
41838;DHT22;27511;52.042;5.178;2024-03-08T14:48:51;15.30;99.90
41838;DHT22;27511;52.042;5.178;2024-03-08T14:51:20;15.60;99.90
41838;DHT22;27511;52.042;5.178;2024-03-08T14:53:48;15.80;99.90
41838;DHT22;27511;52.042;5.178;2024-03-08T14:56:15;15.90;99.90
41838;DHT22;27511;52.042;5.178;2024-03-08T14:58:48;16.10;99.90
41838;DHT22;27511;52.042;5.178;2024-03-08T15:01:17;16.40;99.90
41838;DHT22;27511;52.042;5.178;2024-03-08T15:03:47;16.90;99.90
41838;DHT22;27511;52.042;5.178;2024-03-08T15:06:14;17.00;99.90
41838;DHT22;27511;52.042;5.178;2024-03-08T15:08:40;16.60;99.90
41838;DHT22;27511;52.042;5.178;2024-03-08T15:11:06;16.50;99.90
41838;DHT22;27511;52.042;5.178;2024-03-08T15:13:33;17.10;99.90
41838;DHT22;27511;52.042;5.178;2024-03-08T15:16:07;18.00;99.90
41838;DHT22;27511;52.042;5.178;2024-03-08T15:18:33;19.10;99.90
41838;DHT22;27511;52.042;5.178;2024-03-08T15:21:00;19.00;99.90
41838;DHT22;27511;52.042;5.178;2024-03-08T15:23:26;19.10;99.90
41838;DHT22;27511;52.042;5.178;2024-03-08T15:25:52;19.10;99.90
41838;DHT22;27511;52.042;5.178;2024-03-08T15:28:17;19.10;99.90
41838;DHT22;27511;52.042;5.178;2024-03-08T15:30:46;19.30;99.90
41838;DHT22;27511;52.042;5.178;2024-03-08T15:33:16;19.20;99.90
41838;DHT22;27511;52.042;5.178;2024-03-08T15:35:50;18.30;99.90
41838;DHT22;27511;52.042;5.178;2024-03-08T15:38:23;17.20;99.90
41838;DHT22;27511;52.042;5.178;2024-03-08T15:40:49;16.60;99.90
41838;DHT22;27511;52.042;5.178;2024-03-08T15:43:16;15.70;99.90
41838;DHT22;27511;52.042;5.178;2024-03-08T15:45:45;15.20;99.90
41838;DHT22;27511;52.042;5.178;2024-03-08T15:48:12;14.50;99.90
41838;DHT22;27511;52.042;5.178;2024-03-08T15:50:38;13.90;99.90
41838;DHT22;27511;52.042;5.178;2024-03-08T15:53:04;13.80;99.90